Husum, Washington
Current Conditions -  °F | °C
As of 3:59 AM on Saturday 25 Oct 2014 (Local Time) from K4S2 Reporting Station
Overcast Overcast  
Wind Chill: 52°   Ceiling: 2500
Heat Index: 52°   Visibility: 10mi
Dew Point: 48°   Wind: 5mph
Humidity: 88%   Direction: 50°NE
Pressure: 29.72"   Gusts: NA
Location:  45.8°N, 121.49°W
Report Text: K4S2 251059Z AUTO 05004KT 10SM SCT019 OVC025 11/09 A2972 RMK AO2 SLP077 T01100090
Loading
Personal Weather Stations






























Interactive Weather Map
Tropical Storm Tracking
New forecast layout! Learn more

10-Day Weather Forecast

Advertisements
Track Severe Weather on mobile